Time;durP1;ratioP1;P1;durP2;ratioP2;P2;SDS_P1;SDS_P2;PMS_P1;PMS_P2;Temp;Humidity;BMP_temperature;BMP_pressure;BME280_temperature;BME280_humidity;BME280_pressure;Samples;Min_cycle;Max_cycle;Signal;HPM_P1;HPM_P2
2022/01/17 00:01:13;;;;;;;12.40;7.30;;;3.90;99.90;;;;;;4943368;29;20306;-80
2022/01/17 00:03:39;;;;;;;;;;;3.90;99.90;;;;;;4944702;29;20032;-80
2022/01/17 00:06:05;;;;;;;10.00;6.03;;;3.90;99.90;;;;;;4927808;29;19906;-80
2022/01/17 00:08:31;;;;;;;10.02;5.82;;;4.00;99.90;;;;;;4943593;29;20036;-80
2022/01/17 00:10:57;;;;;;;11.15;5.90;;;4.00;99.90;;;;;;4943569;29;20038;-80
2022/01/17 00:13:26;;;;;;;10.45;5.82;;;4.10;99.90;;;;;;4944172;29;20032;-80
2022/01/17 00:16:02;;;;;;;9.93;5.80;;;4.20;99.90;;;;;;4944382;29;20039;-79
2022/01/17 00:21:07;;;;;;;9.77;5.65;;;4.20;99.90;;;;;;4946043;29;20040;-81
2022/01/17 00:23:33;;;;;;;9.95;5.78;;;4.10;99.90;;;;;;4944750;29;20442;-80
2022/01/17 00:25:59;;;;;;;11.48;6.40;;;4.10;99.90;;;;;;4953539;29;20055;-81
2022/01/17 00:28:25;;;;;;;13.52;7.82;;;4.00;99.90;;;;;;4944881;29;20039;-82
2022/01/17 00:30:51;;;;;;;14.85;7.88;;;4.00;99.90;;;;;;4943500;29;20047;-81
2022/01/17 00:33:17;;;;;;;14.73;7.90;;;3.90;99.90;;;;;;4943702;28;20038;-81
2022/01/17 00:35:43;;;;;;;12.77;7.13;;;3.80;99.90;;;;;;4948206;29;20028;-80
2022/01/17 00:38:12;;;;;;;15.23;7.95;;;3.80;99.90;;;;;;4948245;29;20030;-80
2022/01/17 00:40:41;;;;;;;13.60;7.80;;;3.80;99.90;;;;;;4947157;29;20035;-81
2022/01/17 00:43:08;;;;;;;13.88;7.88;;;3.80;99.90;;;;;;4947509;29;20023;-80
2022/01/17 00:45:39;;;;;;;13.98;8.18;;;3.80;99.90;;;;;;4962996;29;20262;-81
2022/01/17 00:48:05;;;;;;;14.93;8.50;;;3.70;99.90;;;;;;4946884;29;20035;-81
2022/01/17 00:50:31;;;;;;;14.63;8.85;;;3.70;99.90;;;;;;4948158;29;20314;-80
2022/01/17 00:53:03;;;;;;;16.15;9.40;;;3.70;99.90;;;;;;4946947;29;20082;-80
2022/01/17 00:55:34;;;;;;;15.75;9.52;;;3.60;99.90;;;;;;4947281;29;20111;-80
2022/01/17 00:58:03;;;;;;;15.18;8.70;;;3.70;99.90;;;;;;4946648;29;20310;-81
2022/01/17 01:00:29;;;;;;;17.20;9.45;;;3.70;99.90;;;;;;4942705;29;20111;-80
2022/01/17 01:06:43;;;;;;;14.93;8.90;;;3.60;99.90;;;;;;4928930;29;20071;-81
2022/01/17 01:09:09;;;;;;;16.75;9.90;;;3.60;99.90;;;;;;4928109;29;20319;-81
2022/01/17 01:11:35;;;;;;;19.35;10.57;;;3.50;99.90;;;;;;4927720;29;20032;-79
2022/01/17 01:14:01;;;;;;;17.40;10.30;;;3.50;99.90;;;;;;4928168;29;20206;-81
2022/01/17 01:16:33;;;;;;;19.38;10.43;;;3.50;99.90;;;;;;4927523;29;20028;-78
2022/01/17 01:21:45;;;;;;;14.88;9.45;;;3.50;99.90;;;;;;4928397;29;20022;-78
2022/01/17 01:29:55;;;;;;;19.95;11.15;;;3.50;99.90;;;;;;4928462;29;20053;-80
2022/01/17 01:32:24;;;;;;;18.77;10.25;;;3.60;99.90;;;;;;4927097;29;20056;-79
2022/01/17 01:34:53;;;;;;;19.38;11.10;;;3.50;99.90;;;;;;4926728;29;20054;-80
2022/01/17 01:37:43;;;;;;;23.13;11.80;;;3.50;99.90;;;;;;4927974;29;20217;-80
2022/01/17 01:40:34;;;;;;;19.50;11.07;;;3.50;99.90;;;;;;4927300;29;20222;-80
2022/01/17 01:43:00;;;;;;;22.52;11.52;;;3.50;99.90;;;;;;4910816;29;20024;-80
2022/01/17 01:45:27;;;;;;;22.27;11.98;;;3.50;99.90;;;;;;4926884;29;20252;-79
2022/01/17 01:47:53;;;;;;;20.10;11.82;;;3.50;99.90;;;;;;4910903;29;20036;-79
2022/01/17 01:50:20;;;;;;;18.92;11.60;;;3.60;99.90;;;;;;4927057;29;20048;-79
2022/01/17 01:52:46;;;;;;;23.42;12.68;;;3.60;99.90;;;;;;4926860;29;20024;-79
2022/01/17 01:55:16;;;;;;;21.88;12.32;;;3.60;99.90;;;;;;4927661;29;20021;-80
2022/01/17 01:57:44;;;;;;;18.75;11.45;;;3.60;99.90;;;;;;4928300;29;20115;-80
2022/01/17 02:00:12;;;;;;;19.25;10.95;;;3.70;99.90;;;;;;4927562;29;20044;-80
2022/01/17 02:02:38;;;;;;;22.88;11.60;;;3.60;99.90;;;;;;4927951;29;20028;-80
2022/01/17 02:05:05;;;;;;;19.45;10.50;;;3.60;99.90;;;;;;4926579;29;20103;-80
2022/01/17 02:07:33;;;;;;;17.60;10.57;;;3.60;99.90;;;;;;4926481;29;20060;-81
2022/01/17 02:09:59;;;;;;;18.20;10.38;;;3.70;99.90;;;;;;4927701;29;20031;-80
2022/01/17 02:12:29;;;;;;;20.52;10.48;;;3.60;99.90;;;;;;4926574;29;20267;-80
2022/01/17 02:14:56;;;;;;;17.98;9.93;;;3.70;99.90;;;;;;4927057;29;20160;-80
2022/01/17 02:17:24;;;;;;;18.52;10.23;;;3.70;99.90;;;;;;4926303;29;20370;-80
2022/01/17 02:20:04;;;;;;;16.83;9.45;;;3.70;99.90;;;;;;4940590;29;20042;-81
2022/01/17 02:22:40;;;;;;;17.77;9.90;;;3.80;99.90;;;;;;4961550;29;20072;-80
2022/01/17 02:25:06;;;;;;;16.75;9.68;;;3.80;99.90;;;;;;4928699;29;20083;-78
2022/01/17 02:27:32;;;;;;;16.80;10.00;;;3.80;99.90;;;;;;4929487;29;20322;-80
2022/01/17 02:29:58;;;;;;;17.30;9.25;;;3.80;99.90;;;;;;4945054;29;20035;-80
2022/01/17 02:32:23;;;;;;;15.88;9.07;;;3.90;99.90;;;;;;4946284;29;20269;-80
2022/01/17 02:34:49;;;;;;;15.23;8.50;;;3.90;99.90;;;;;;4946436;29;20030;-81
2022/01/17 02:37:15;;;;;;;17.50;10.07;;;3.90;99.90;;;;;;4945239;29;20328;-79
2022/01/17 02:39:41;;;;;;;18.45;9.50;;;4.00;99.90;;;;;;4946310;29;20024;-81
2022/01/17 02:42:07;;;;;;;15.70;8.95;;;3.90;99.90;;;;;;4944735;29;20043;-81
2022/01/17 02:44:33;;;;;;;16.48;9.45;;;3.90;99.90;;;;;;4961409;29;20222;-81
2022/01/17 02:47:02;;;;;;;17.77;8.85;;;4.00;99.90;;;;;;4944885;29;20031;-80
2022/01/17 02:53:00;;;;;;;15.40;9.00;;;4.00;99.90;;;;;;4945827;29;20290;-81
2022/01/17 02:55:26;;;;;;;16.92;9.55;;;4.00;99.90;;;;;;4945957;29;20027;-82
2022/01/17 02:57:52;;;;;;;16.50;9.13;;;4.00;99.90;;;;;;4960148;29;20028;-82
2022/01/17 03:00:18;;;;;;;15.63;8.52;;;4.00;99.90;;;;;;4945327;29;20070;-82
2022/01/17 03:02:48;;;;;;;13.68;8.05;;;4.10;99.90;;;;;;4960996;29;20111;-82
2022/01/17 03:05:15;;;;;;;17.23;8.40;;;4.00;99.90;;;;;;4928972;29;20020;-82
2022/01/17 03:07:41;;;;;;;14.95;8.65;;;4.00;99.90;;;;;;4960936;29;20034;-82
2022/01/17 03:10:14;;;;;;;19.55;10.57;;;4.00;99.90;;;;;;4945533;29;20234;-82
2022/01/17 03:12:40;;;;;;;16.65;9.88;;;4.00;99.90;;;;;;4929316;29;20103;-81
2022/01/17 03:15:06;;;;;;;18.50;10.43;;;4.00;99.90;;;;;;4960553;29;20040;-82
2022/01/17 03:17:32;;;;;;;18.20;10.57;;;3.90;99.90;;;;;;4945253;29;20020;-83
2022/01/17 03:19:57;;;;;;;18.00;10.40;;;3.80;99.90;;;;;;4960484;29;20346;-81
2022/01/17 03:22:23;;;;;;;15.50;9.77;;;3.80;99.90;;;;;;4929134;29;20206;-82
2022/01/17 03:28:42;;;;;;;17.10;9.55;;;3.80;99.90;;;;;;4946014;29;20359;-81
2022/01/17 03:31:09;;;;;;;15.23;9.35;;;3.80;99.90;;;;;;4945982;29;20059;-81
2022/01/17 03:33:35;;;;;;;18.85;10.25;;;3.90;99.90;;;;;;4927673;29;20047;-81
2022/01/17 03:36:01;;;;;;;17.33;10.05;;;3.80;99.90;;;;;;4927597;29;20036;-81
2022/01/17 03:38:30;;;;;;;18.13;10.25;;;3.80;99.90;;;;;;4927874;29;20043;-82
2022/01/17 03:40:58;;;;;;;18.10;9.60;;;3.80;99.90;;;;;;4927763;29;20032;-82
2022/01/17 03:43:24;;;;;;;17.25;9.57;;;3.80;99.90;;;;;;4943823;29;20349;-83
2022/01/17 03:45:51;;;;;;;16.17;9.27;;;3.80;99.90;;;;;;4912174;29;20034;-81
2022/01/17 03:48:18;;;;;;;18.85;10.90;;;3.90;99.90;;;;;;4943579;29;20071;-81
2022/01/17 03:50:44;;;;;;;16.48;9.70;;;3.80;99.90;;;;;;4944422;29;20258;-82
2022/01/17 03:53:10;;;;;;;16.95;9.55;;;3.90;99.90;;;;;;4943649;29;20039;-82
2022/01/17 03:55:36;;;;;;;18.25;9.90;;;3.90;99.90;;;;;;4943842;29;20043;-83
2022/01/17 03:58:06;;;;;;;16.77;9.57;;;3.90;99.90;;;;;;4944926;29;20278;-81
2022/01/17 04:00:41;;;;;;;16.58;9.70;;;3.90;99.90;;;;;;4927742;29;20102;-83
2022/01/17 04:03:08;;;;;;;19.30;9.70;;;4.00;99.90;;;;;;4911287;29;20062;-82
2022/01/17 04:05:34;;;;;;;15.63;9.55;;;4.00;99.90;;;;;;4928167;29;20115;-81
2022/01/17 04:08:00;;;;;;;20.70;10.57;;;4.00;99.90;;;;;;4928225;29;20035;-82
2022/01/17 04:10:26;;;;;;;17.13;10.60;;;4.00;99.90;;;;;;4950127;29;20087;-81
2022/01/17 04:13:17;;;;;;;17.48;10.43;;;3.90;99.90;;;;;;4943945;29;20218;-81
2022/01/17 04:15:43;;;;;;;20.77;11.27;;;3.90;99.90;;;;;;4944570;29;20024;-81
2022/01/17 04:18:10;;;;;;;17.95;11.32;;;3.90;99.90;;;;;;4911884;29;20225;-81
2022/01/17 04:20:38;;;;;;;21.03;12.10;;;3.90;99.90;;;;;;4925970;29;20154;-81
2022/01/17 04:23:06;;;;;;;23.92;14.05;;;3.90;99.90;;;;;;4908672;29;20447;-81
2022/01/17 04:25:34;;;;;;;25.88;13.23;;;3.90;99.90;;;;;;4924763;29;20044;-81
2022/01/17 04:28:03;;;;;;;28.83;15.00;;;3.90;99.90;;;;;;4940111;29;20044;-81
2022/01/17 04:34:25;;;;;;;26.75;14.52;;;3.80;99.90;;;;;;4925525;29;20068;-81
2022/01/17 04:36:51;;;;;;;26.20;15.50;;;3.60;99.90;;;;;;4924039;29;20024;-81
2022/01/17 04:39:17;;;;;;;25.67;14.40;;;3.70;99.90;;;;;;4923883;29;20035;-81
2022/01/17 04:41:43;;;;;;;28.08;15.93;;;3.80;99.90;;;;;;4924663;29;20361;-81
2022/01/17 04:46:56;;;;;;;30.65;17.60;;;3.80;99.90;;;;;;4924626;29;20315;-82
2022/01/17 04:49:22;;;;;;;33.85;17.50;;;3.80;99.90;;;;;;4925139;29;20082;-82
2022/01/17 04:51:53;;;;;;;30.27;16.27;;;3.70;99.90;;;;;;4924477;29;20020;-82
2022/01/17 04:56:45;;;;;;;27.95;15.73;;;3.70;99.90;;;;;;4940104;29;20048;-82
2022/01/17 04:59:10;;;;;;;27.90;15.90;;;3.70;99.90;;;;;;4923539;29;20048;-82
2022/01/17 05:01:36;;;;;;;30.88;17.48;;;3.70;99.90;;;;;;4924174;29;20067;-82
2022/01/17 05:04:04;;;;;;;33.78;18.17;;;3.80;99.90;;;;;;4923833;29;20027;-83
2022/01/17 05:06:30;;;;;;;29.27;16.73;;;3.70;99.90;;;;;;4924353;29;20028;-82
2022/01/17 05:08:56;;;;;;;30.98;16.67;;;3.70;99.90;;;;;;4924291;29;20075;-82
2022/01/17 05:11:25;;;;;;;28.08;16.30;;;3.70;99.90;;;;;;4923474;29;20032;-82
2022/01/17 05:13:51;;;;;;;32.45;17.60;;;3.80;99.90;;;;;;4925519;29;20298;-81
2022/01/17 05:16:19;;;;;;;31.40;17.50;;;3.70;99.90;;;;;;4940599;29;20031;-81
2022/01/17 05:21:12;;;;;;;32.78;19.05;;;3.60;99.90;;;;;;4948028;29;20318;-82
2022/01/17 05:23:40;;;;;;;29.27;16.75;;;3.60;99.90;;;;;;4948324;29;20027;-80
2022/01/17 05:26:41;;;;;;;31.95;17.38;;;3.60;99.90;;;;;;4947782;29;20044;-82
2022/01/17 05:29:07;;;;;;;31.35;16.73;;;3.60;99.90;;;;;;4929650;29;20127;-81
2022/01/17 05:31:32;;;;;;;29.00;17.00;;;3.60;99.90;;;;;;4930781;29;20027;-80
2022/01/17 05:33:58;;;;;;;29.20;17.13;;;3.60;99.90;;;;;;4947427;29;20229;-80
2022/01/17 05:36:24;;;;;;;30.42;17.17;;;3.70;99.90;;;;;;4946732;29;20028;-80
2022/01/17 05:38:52;;;;;;;31.73;18.15;;;3.60;99.90;;;;;;4948099;29;20043;-79
2022/01/17 05:41:18;;;;;;;30.58;16.50;;;3.50;99.90;;;;;;4929959;29;20019;-79
2022/01/17 05:43:44;;;;;;;31.58;17.50;;;3.50;99.90;;;;;;4947805;29;20027;-79
2022/01/17 05:46:10;;;;;;;29.23;16.25;;;3.50;99.90;;;;;;4929846;29;20051;-80
2022/01/17 05:48:36;;;;;;;27.38;16.02;;;3.70;99.90;;;;;;4946152;29;20039;-80
2022/01/17 05:51:02;;;;;;;28.55;15.88;;;3.80;99.90;;;;;;4946190;29;20031;-79
2022/01/17 05:53:29;;;;;;;31.45;17.98;;;3.80;99.90;;;;;;4945885;29;20232;-80
2022/01/17 05:55:55;;;;;;;27.10;15.80;;;3.80;99.90;;;;;;4930092;29;20341;-81
2022/01/17 05:58:21;;;;;;;32.58;17.38;;;3.80;99.90;;;;;;4945659;29;20032;-79
2022/01/17 06:00:47;;;;;;;30.05;16.75;;;3.80;99.90;;;;;;4928185;29;20027;-80
2022/01/17 06:03:39;;;;;;;29.20;16.83;;;3.80;99.90;;;;;;4948592;29;20115;-80
2022/01/17 06:06:12;;;;;;;31.38;15.25;;;3.80;99.90;;;;;;4941665;29;20035;-80
2022/01/17 06:08:38;;;;;;;28.33;15.90;;;3.80;99.90;;;;;;4953850;29;20095;-79
2022/01/17 06:11:12;;;;;;;29.92;16.30;;;3.80;99.90;;;;;;4945670;29;20032;-81
2022/01/17 06:13:38;;;;;;;28.60;15.80;;;3.80;99.90;;;;;;4946764;29;20062;-80
2022/01/17 06:16:07;;;;;;;29.00;16.85;;;3.80;99.90;;;;;;4945494;29;20032;-80
2022/01/17 06:18:33;;;;;;;28.00;16.20;;;3.80;99.90;;;;;;4946282;29;20091;-81
2022/01/17 06:20:59;;;;;;;32.38;18.00;;;3.80;99.90;;;;;;4938980;29;20020;-80
2022/01/17 06:23:25;;;;;;;36.35;19.17;;;3.80;99.90;;;;;;4941892;29;20329;-80
2022/01/17 06:25:51;;;;;;;28.77;16.75;;;3.80;99.90;;;;;;4927280;29;20035;-81
2022/01/17 06:28:21;;;;;;;33.90;18.25;;;3.80;99.90;;;;;;4946825;29;20052;-80
2022/01/17 06:30:50;;;;;;;30.77;16.10;;;3.90;99.90;;;;;;4959861;28;20039;-80
2022/01/17 06:33:17;;;;;;;;;;;3.90;99.90;;;;;;4960964;29;20035;-80
2022/01/17 06:35:43;;;;;;;27.23;14.98;;;4.00;99.90;;;;;;4939649;29;19951;-80
2022/01/17 06:38:33;;;;;;;27.48;15.50;;;4.00;99.90;;;;;;4926930;29;20032;-80
2022/01/17 06:40:59;;;;;;;28.58;14.82;;;4.00;99.90;;;;;;4942719;29;20044;-81
2022/01/17 06:43:25;;;;;;;25.27;14.43;;;4.00;99.90;;;;;;4941337;29;20071;-80
2022/01/17 06:45:50;;;;;;;28.38;15.23;;;4.00;99.90;;;;;;4947551;28;20051;-79
2022/01/17 06:48:16;;;;;;;28.77;15.85;;;4.00;99.90;;;;;;4960001;29;20297;-78
2022/01/17 06:50:42;;;;;;;24.33;14.10;;;4.00;99.90;;;;;;4963458;29;20367;-79
2022/01/17 06:53:08;;;;;;;25.98;14.60;;;4.00;99.90;;;;;;4962153;29;20027;-80
2022/01/17 06:55:34;;;;;;;26.20;14.95;;;4.00;99.90;;;;;;4944707;29;20341;-80
2022/01/17 06:57:59;;;;;;;26.95;14.88;;;4.10;99.90;;;;;;4960836;29;20195;-81
2022/01/17 07:00:25;;;;;;;23.17;13.10;;;4.10;99.90;;;;;;4945064;29;20050;-79
2022/01/17 07:02:52;;;;;;;23.10;11.90;;;4.10;99.90;;;;;;4945383;29;20213;-79
2022/01/17 07:05:17;;;;;;;20.55;10.13;;;4.00;99.90;;;;;;4945200;29;20038;-79
2022/01/17 07:07:44;;;;;;;17.80;9.88;;;4.00;99.90;;;;;;4945912;29;20031;-78
2022/01/17 07:10:11;;;;;;;18.33;10.02;;;4.00;99.90;;;;;;4959970;29;20027;-80
2022/01/17 07:12:38;;;;;;;19.55;10.98;;;4.10;99.90;;;;;;4945611;29;20093;-80
2022/01/17 07:15:05;;;;;;;18.88;9.68;;;4.10;99.90;;;;;;4959876;29;20183;-81
2022/01/17 07:17:31;;;;;;;15.07;8.43;;;4.10;99.90;;;;;;4960042;29;20039;-79
2022/01/17 07:19:57;;;;;;;16.77;9.25;;;4.20;99.90;;;;;;4959694;29;20055;-78
2022/01/17 07:22:23;;;;;;;15.55;9.65;;;4.20;99.90;;;;;;4924836;29;20036;-79
2022/01/17 07:24:49;;;;;;;11.65;6.32;;;4.20;99.90;;;;;;4927103;29;20423;-79
2022/01/17 07:27:15;;;;;;;12.07;6.57;;;4.30;99.90;;;;;;4925594;29;20056;-79
2022/01/17 07:29:42;;;;;;;9.43;5.80;;;4.30;99.90;;;;;;4941280;29;20330;-79
2022/01/17 07:32:10;;;;;;;10.10;5.00;;;4.40;99.90;;;;;;4925707;29;20123;-79
2022/01/17 07:34:35;;;;;;;9.88;5.35;;;4.50;99.90;;;;;;4942281;29;20380;-80
2022/01/17 07:37:19;;;;;;;9.30;4.70;;;4.50;99.90;;;;;;4935350;29;20102;-79
2022/01/17 07:40:04;;;;;;;9.32;5.00;;;4.50;99.90;;;;;;4932035;29;20035;-80
2022/01/17 07:42:30;;;;;;;9.23;4.82;;;4.60;99.90;;;;;;4939674;29;20035;-78
2022/01/17 07:44:58;;;;;;;10.00;4.70;;;4.60;99.90;;;;;;4926502;29;20326;-82
2022/01/17 07:50:21;;;;;;;9.30;4.97;;;4.60;99.90;;;;;;4925471;29;20021;-80
2022/01/17 07:52:48;;;;;;;10.15;4.63;;;4.60;99.90;;;;;;4927747;29;20114;-80
2022/01/17 07:55:15;;;;;;;8.50;4.68;;;4.60;99.90;;;;;;4925353;29;20047;-80
2022/01/17 07:57:43;;;;;;;9.00;5.03;;;4.60;99.90;;;;;;4940559;29;20043;-81
2022/01/17 08:00:11;;;;;;;7.03;4.78;;;4.70;99.90;;;;;;4939959;29;20043;-80
2022/01/17 08:02:44;;;;;;;8.40;4.60;;;4.70;99.90;;;;;;4926735;29;20116;-79
2022/01/17 08:05:14;;;;;;;6.85;4.00;;;4.80;99.90;;;;;;4955524;29;20092;-81
2022/01/17 08:07:43;;;;;;;7.95;4.25;;;4.90;99.90;;;;;;4940609;29;20040;-81
2022/01/17 08:10:12;;;;;;;7.13;4.15;;;5.00;99.90;;;;;;4940277;29;20039;-80
2022/01/17 08:12:43;;;;;;;6.93;4.30;;;4.90;99.90;;;;;;4926156;29;20103;-81
2022/01/17 08:15:10;;;;;;;7.85;4.60;;;4.90;99.90;;;;;;4953854;28;20092;-80
2022/01/17 08:17:42;;;;;;;7.95;3.72;;;5.00;99.90;;;;;;4930574;29;20023;-82
2022/01/17 08:20:09;;;;;;;9.45;4.00;;;5.00;99.90;;;;;;4943206;29;20054;-80
2022/01/17 08:22:35;;;;;;;7.70;4.00;;;5.00;99.90;;;;;;4933050;29;20031;-81
2022/01/17 08:25:02;;;;;;;7.68;4.10;;;5.10;99.90;;;;;;4951606;29;20028;-78
2022/01/17 08:27:28;;;;;;;6.90;3.63;;;5.10;99.90;;;;;;4929383;29;20068;-79
2022/01/17 08:29:54;;;;;;;7.78;4.22;;;5.20;99.90;;;;;;4925096;29;20035;-81
2022/01/17 08:32:20;;;;;;;6.57;4.05;;;5.20;99.90;;;;;;4934301;29;20042;-79
2022/01/17 08:34:46;;;;;;;6.47;3.80;;;5.20;99.90;;;;;;4958898;29;20065;-80
2022/01/17 08:37:12;;;;;;;8.13;3.97;;;5.30;99.90;;;;;;4931600;29;20027;-81
2022/01/17 08:39:38;;;;;;;7.18;3.85;;;5.30;99.90;;;;;;4928076;29;20035;-80
2022/01/17 08:42:10;;;;;;;7.70;3.97;;;5.30;99.90;;;;;;4940696;29;20032;-79
2022/01/17 08:44:37;;;;;;;7.78;4.20;;;5.40;99.90;;;;;;4950200;29;20040;-80
2022/01/17 08:47:03;;;;;;;7.32;4.22;;;5.40;99.90;;;;;;4924918;29;20063;-80
2022/01/17 08:49:30;;;;;;;8.63;4.07;;;5.40;99.90;;;;;;4924780;29;20040;-78
2022/01/17 08:51:55;;;;;;;7.18;4.20;;;5.40;99.90;;;;;;4942090;29;20071;-80
2022/01/17 08:54:21;;;;;;;9.70;4.20;;;5.50;99.90;;;;;;4926503;29;20036;-79
2022/01/17 08:56:47;;;;;;;6.45;3.63;;;5.50;99.90;;;;;;4945901;29;20047;-79
2022/01/17 08:59:13;;;;;;;7.03;4.00;;;5.60;99.90;;;;;;4929433;29;20054;-82
2022/01/17 09:01:39;;;;;;;6.10;3.60;;;5.70;99.90;;;;;;4929483;29;20054;-79
2022/01/17 09:07:33;;;;;;;7.18;3.67;;;6.10;99.90;;;;;;4931328;29;20051;-80
2022/01/17 09:09:59;;;;;;;6.80;3.92;;;6.10;99.90;;;;;;4941645;29;20055;-79
2022/01/17 09:12:25;;;;;;;8.95;3.65;;;6.20;99.90;;;;;;4929050;29;20099;-78
2022/01/17 09:14:51;;;;;;;6.47;3.47;;;6.20;99.90;;;;;;4929617;29;20263;-79
2022/01/17 09:17:17;;;;;;;6.40;3.38;;;6.20;99.90;;;;;;4928106;29;20072;-80
2022/01/17 09:19:43;;;;;;;6.18;3.47;;;6.10;99.90;;;;;;4929490;29;20051;-81
2022/01/17 09:22:10;;;;;;;6.22;3.47;;;6.40;99.90;;;;;;4930170;29;20051;-79
2022/01/17 09:24:37;;;;;;;5.60;3.15;;;6.50;99.90;;;;;;4945794;29;20282;-81
2022/01/17 09:27:04;;;;;;;5.13;3.35;;;6.40;99.90;;;;;;4946893;29;20089;-79
2022/01/17 09:29:31;;;;;;;7.18;3.60;;;6.40;99.90;;;;;;4961754;29;20028;-79
2022/01/17 09:31:57;;;;;;;6.32;3.33;;;6.40;99.90;;;;;;4945295;28;20207;-78
2022/01/17 09:34:23;;;;;;;4.80;3.05;;;6.60;99.90;;;;;;4944217;29;20030;-79
2022/01/17 09:36:49;;;;;;;5.25;3.28;;;6.60;99.90;;;;;;4930860;29;20035;-79
2022/01/17 09:39:15;;;;;;;5.55;3.15;;;6.50;99.90;;;;;;4961224;29;20048;-79
2022/01/17 09:41:41;;;;;;;10.40;4.45;;;6.80;99.90;;;;;;4946792;29;20086;-79
2022/01/17 09:44:09;;;;;;;5.43;2.78;;;6.80;99.90;;;;;;4947073;29;20028;-78
2022/01/17 09:46:43;;;;;;;5.37;3.27;;;6.90;99.90;;;;;;4960783;28;20346;-80
2022/01/17 09:52:05;;;;;;;6.32;2.72;;;6.90;99.90;;;;;;4945880;29;20082;-80
2022/01/17 09:54:38;;;;;;;4.97;2.88;;;7.10;99.90;;;;;;4944766;29;20059;-82
2022/01/17 09:57:07;;;;;;;4.63;2.85;;;7.00;99.90;;;;;;4929413;29;20026;-82
2022/01/17 09:59:40;;;;;;;4.43;2.63;;;7.00;99.90;;;;;;4956027;29;20066;-81
2022/01/17 10:02:08;;;;;;;4.28;2.45;;;7.10;99.90;;;;;;4954074;28;20114;-80
2022/01/17 10:04:35;;;;;;;4.07;2.53;;;7.30;99.90;;;;;;4950958;29;20098;-81
2022/01/17 10:07:01;;;;;;;4.28;2.45;;;7.40;99.90;;;;;;4944798;29;20051;-81
2022/01/17 10:09:28;;;;;;;5.85;3.03;;;7.40;99.90;;;;;;4946076;29;20032;-79
2022/01/17 10:12:03;;;;;;;3.95;2.22;;;7.60;99.90;;;;;;4943604;29;20210;-81
2022/01/17 10:14:36;;;;;;;5.55;2.67;;;7.80;99.90;;;;;;4942990;29;20104;-80
2022/01/17 10:18:03;;;;;;;6.47;2.70;;;8.00;99.90;;;;;;4930817;29;20044;-79
2022/01/17 10:20:32;;;;;;;4.70;1.90;;;8.20;99.90;;;;;;4913632;29;20055;-81
2022/01/17 10:23:29;;;;;;;3.80;1.65;;;8.30;99.90;;;;;;4924804;29;20059;-80
2022/01/17 10:26:07;;;;;;;3.45;1.52;;;8.20;99.90;;;;;;4893939;29;20288;-79
2022/01/17 10:34:52;;;;;;;3.30;1.60;;;8.10;99.90;;;;;;4908781;29;20911;-80
2022/01/17 10:36:49;;;;;;;4.82;1.27;;;8.10;99.90;;;;;;4924584;29;20036;-80
2022/01/17 10:39:15;;;;;;;2.73;1.20;;;8.00;99.90;;;;;;4909072;29;20247;-80
2022/01/17 10:41:41;;;;;;;3.35;1.08;;;8.10;99.90;;;;;;4924328;29;20024;-80
2022/01/17 10:44:07;;;;;;;5.18;1.10;;;8.10;99.90;;;;;;4924931;29;20031;-80
2022/01/17 10:46:33;;;;;;;3.55;1.00;;;7.90;99.90;;;;;;4940245;29;20156;-79
2022/01/17 10:49:00;;;;;;;3.72;1.30;;;7.80;99.90;;;;;;4944291;29;20314;-79
2022/01/17 10:51:34;;;;;;;4.13;2.10;;;7.70;99.90;;;;;;4959725;29;20038;-78
2022/01/17 10:54:14;;;;;;;5.47;3.67;;;7.50;99.90;;;;;;4960495;29;20322;-78
2022/01/17 10:57:12;;;;;;;6.85;3.78;;;7.30;99.90;;;;;;4959996;29;20036;-79
2022/01/17 10:59:38;;;;;;;8.70;4.00;;;7.10;99.90;;;;;;4933114;29;20039;-79
2022/01/17 11:02:04;;;;;;;7.05;3.60;;;6.90;99.90;;;;;;4944029;29;20051;-79
2022/01/17 11:04:35;;;;;;;7.95;3.80;;;6.90;99.90;;;;;;4945149;29;20034;-78
2022/01/17 11:07:05;;;;;;;6.28;3.85;;;6.70;99.90;;;;;;4928363;29;20102;-79
2022/01/17 11:09:41;;;;;;;6.07;3.85;;;6.60;99.90;;;;;;4933211;29;20047;-80
2022/01/17 11:12:12;;;;;;;7.10;4.05;;;6.70;99.90;;;;;;4926399;29;20121;-79
2022/01/17 11:14:39;;;;;;;9.38;3.88;;;6.80;99.90;;;;;;4926154;29;20843;-81
2022/01/17 11:17:20;;;;;;;;;;;6.70;99.90;;;;;;4924460;29;20116;-80
2022/01/17 11:22:49;;;;;;;7.07;3.58;;;6.90;99.90;;;;;;4924249;29;20044;-79
2022/01/17 11:25:28;;;;;;;7.20;4.03;;;6.90;99.90;;;;;;4941130;29;20123;-79
2022/01/17 11:27:54;;;;;;;7.00;4.25;;;6.80;99.90;;;;;;4943313;29;20067;-79
2022/01/17 11:30:39;;;;;;;7.65;4.63;;;6.80;99.90;;;;;;4957215;29;20221;-79
2022/01/17 11:33:08;;;;;;;7.88;4.53;;;6.60;99.90;;;;;;4954972;29;20024;-80
2022/01/17 11:35:37;;;;;;;6.82;4.13;;;6.50;99.90;;;;;;4934321;29;20016;-79
2022/01/17 11:38:04;;;;;;;7.03;4.80;;;6.40;99.90;;;;;;4945084;29;20024;-78
2022/01/17 11:40:33;;;;;;;6.47;4.22;;;6.10;99.90;;;;;;4944064;29;20039;-79
2022/01/17 11:43:14;;;;;;;7.43;4.13;;;6.10;99.90;;;;;;4943879;29;20053;-79
2022/01/17 11:45:41;;;;;;;7.68;4.82;;;6.00;99.90;;;;;;4953150;29;20052;-80
2022/01/17 11:48:28;;;;;;;7.53;4.40;;;5.90;99.90;;;;;;4925999;29;20091;-79
2022/01/17 11:51:12;;;;;;;7.63;4.50;;;6.00;99.90;;;;;;4953688;29;20209;-78
2022/01/17 11:53:41;;;;;;;7.82;4.70;;;6.10;99.90;;;;;;4946321;29;20032;-80
2022/01/17 11:56:07;;;;;;;8.68;4.78;;;6.20;99.90;;;;;;4961663;29;20032;-81
2022/01/17 11:58:47;;;;;;;6.28;4.13;;;6.30;99.90;;;;;;4933737;29;20342;-80
2022/01/17 12:01:21;;;;;;;7.88;3.83;;;6.40;99.90;;;;;;4925762;29;20048;-80
2022/01/17 12:03:55;;;;;;;7.75;3.65;;;6.50;99.90;;;;;;4926865;29;20095;-79
2022/01/17 12:06:37;;;;;;;7.78;4.03;;;6.70;99.90;;;;;;4940413;29;20024;-81
2022/01/17 12:09:27;;;;;;;7.07;3.97;;;6.70;99.90;;;;;;4925487;29;20323;-81
2022/01/17 12:11:56;;;;;;;6.13;3.28;;;6.80;99.90;;;;;;4940641;29;20035;-82
2022/01/17 12:14:30;;;;;;;4.80;2.75;;;6.90;99.90;;;;;;4924811;29;20106;-79
2022/01/17 12:17:25;;;;;;;5.55;2.78;;;6.90;99.90;;;;;;4956371;28;20052;-81
2022/01/17 12:20:03;;;;;;;4.75;2.95;;;6.90;99.90;;;;;;4927496;29;20106;-80
2022/01/17 12:22:49;;;;;;;4.72;2.75;;;7.00;99.90;;;;;;4942850;29;20039;-80
2022/01/17 12:25:25;;;;;;;5.25;3.08;;;7.00;99.90;;;;;;4926956;29;20215;-80
2022/01/17 12:28:16;;;;;;;4.00;2.60;;;7.00;99.90;;;;;;4927004;29;20110;-80
2022/01/17 12:31:08;;;;;;;4.88;2.72;;;6.90;99.90;;;;;;4941808;29;20110;-80
2022/01/17 12:33:40;;;;;;;5.70;3.03;;;6.90;99.90;;;;;;4930351;29;20040;-81
2022/01/17 12:36:28;;;;;;;5.40;2.80;;;7.00;99.90;;;;;;4945432;29;20032;-80
2022/01/17 12:39:21;;;;;;;5.57;3.20;;;6.90;99.90;;;;;;4927937;29;20318;-80
2022/01/17 12:41:50;;;;;;;6.35;3.35;;;7.00;99.90;;;;;;4943796;29;20039;-80
2022/01/17 12:44:24;;;;;;;5.80;3.25;;;7.00;99.90;;;;;;4929037;29;20024;-81
2022/01/17 12:46:53;;;;;;;5.07;3.15;;;6.90;99.90;;;;;;4928196;29;20047;-80
2022/01/17 12:49:20;;;;;;;5.55;3.45;;;6.90;99.90;;;;;;4952336;29;20083;-81
2022/01/17 12:51:51;;;;;;;4.93;3.33;;;7.00;99.90;;;;;;4946260;29;20032;-79
2022/01/17 12:54:37;;;;;;;5.55;3.53;;;7.20;99.90;;;;;;4953785;29;20258;-80
2022/01/17 12:57:03;;;;;;;5.97;3.28;;;7.30;99.90;;;;;;4937397;28;20115;-80
2022/01/17 12:59:29;;;;;;;5.78;3.13;;;7.20;99.90;;;;;;4929620;29;20032;-80
2022/01/17 13:01:58;;;;;;;4.75;3.15;;;7.10;99.90;;;;;;4927313;29;20036;-80
2022/01/17 13:04:24;;;;;;;7.57;2.90;;;7.10;99.90;;;;;;4934736;29;20023;-81
2022/01/17 13:06:52;;;;;;;5.55;2.90;;;7.00;99.90;;;;;;4923449;29;20035;-79
2022/01/17 13:09:27;;;;;;;5.60;2.85;;;7.10;99.90;;;;;;4937947;29;20039;-80
2022/01/17 13:11:57;;;;;;;6.05;3.53;;;7.00;99.90;;;;;;4927289;29;20039;-79
2022/01/17 13:14:25;;;;;;;5.65;3.08;;;7.10;99.90;;;;;;4927576;29;20345;-79
2022/01/17 13:16:51;;;;;;;5.70;3.20;;;7.20;99.90;;;;;;4926564;29;20075;-79
2022/01/17 13:19:18;;;;;;;4.50;2.60;;;7.20;99.90;;;;;;4942210;29;20259;-79
2022/01/17 13:21:49;;;;;;;4.00;2.45;;;7.40;99.90;;;;;;4933343;29;20067;-79
2022/01/17 13:24:34;;;;;;;6.30;3.10;;;7.30;99.90;;;;;;4930122;29;20172;-79
2022/01/17 13:27:16;;;;;;;4.03;2.67;;;7.30;99.90;;;;;;4929896;29;20036;-79
2022/01/17 13:29:45;;;;;;;4.90;2.75;;;7.30;99.90;;;;;;4961523;29;20024;-81
2022/01/17 13:32:13;;;;;;;5.50;2.20;;;7.10;99.90;;;;;;4945534;29;20040;-81
2022/01/17 13:34:41;;;;;;;4.13;2.50;;;7.00;99.90;;;;;;4945661;29;20061;-81
2022/01/17 13:37:09;;;;;;;4.63;2.10;;;6.90;99.90;;;;;;4962149;29;20043;-79
2022/01/17 13:39:36;;;;;;;3.85;2.33;;;6.90;99.90;;;;;;4961592;29;20032;-81
2022/01/17 13:42:04;;;;;;;4.88;2.70;;;6.80;99.90;;;;;;4946455;29;20098;-79
2022/01/17 13:44:32;;;;;;;6.32;2.53;;;6.80;99.90;;;;;;4946589;29;20019;-80
2022/01/17 13:47:17;;;;;;;6.03;2.15;;;7.00;99.90;;;;;;4945034;28;20094;-80
2022/01/17 13:49:49;;;;;;;4.35;2.03;;;7.00;99.90;;;;;;4929770;29;20094;-80
2022/01/17 13:56:06;;;;;;;4.88;1.73;;;7.00;99.90;;;;;;4927559;29;20347;-81